x

Ocp1 - Ocean Crest Pier, Nc (ocpn7) Weather Station

6:47pm - Thu 18th Dec 2014 All times are EST. -5 hours from GMT.

  • Wind
    5mph, 6mph gusts
  • Sea Temp 55°f
  • Air Temp 49°f
  • Sea Pressure 1018.3mb
  • Ocp1 - Ocean Crest Pier, Nc
  • Ocp1 - Ocean Crest Pier, Nc

More Historic Weather Station data

Upgrade to MSW Pro to gain access to the past 30 days of data for over 8000 Wavebouys and Weather Stations around the globe.

Join Pro

Comparision Forecast

View Surf forecast
   
Thu 12/18 6:47pm 5 6 mph 1018.3mb 55f 49f
6:32pm 5 6 mph 1018.2mb 55f 49f
6:17pm 5 6 mph 1018.2mb 55f 49f
6:02pm 5
mph
1018.1mb 55f 49f
5:47pm 5 6 mph 1017.9mb 55f 50f
5:32pm 5 6 mph 1017.8mb 55f 51f
5:17pm 6 7 mph 1017.7mb 55f 51f
5:02pm 7 8 mph 1017.9mb 55f 52f
4:47pm 9 10 mph 1017.8mb 55f 52f
4:32pm 8 9 mph 1018mb 55f 52f
4:17pm 10 11 mph 1018mb 55f 52f
4:02pm 11 13 mph 1017.8mb 55f 52f
3:32pm 11 13 mph 1017.9mb 55f 52f
3:17pm 13 14 mph 1017.8mb 55f 52f
3:02pm 13 14 mph 1017.9mb 55f 52f
2:47pm 13 14 mph 1018.2mb 55f 53f
2:32pm 11 14 mph 1017.9mb 55f 53f
2:17pm 10 13 mph 1017.9mb 55f 53f
2:02pm 11 13 mph 1018.1mb 55f 53f
1:47pm 13 14 mph 1018.1mb 55f 52f
1:32pm 11 14 mph 1018.5mb 55f 53f
1:17pm 10
mph
1018.8mb 55f 53f
1:02pm 6 8 mph 1019.1mb 55f 53f
12:47pm 6
mph
1019.3mb 55f 54f
12:32pm 3 5 mph 1019.3mb 55f 55f
12:17pm 6 9 mph 1019.8mb 55f 54f
12:02pm 6 9 mph 1020.1mb 54f 54f
11:47am 8 10 mph 1020.1mb 54f 53f
11:32am 9 14 mph 1020.5mb 54f 52f
11:17am 10 14 mph 1020.6mb 54f 51f
11:02am 7 10 mph 1021mb 54f 51f
10:47am 9 13 mph 1021mb 54f 50f
10:32am 10 14 mph 1021mb 54f 49f
10:17am 9 14 mph 1020.9mb 54f 49f
10:02am 16 20 mph 1020.7mb 54f 48f
9:47am 15 18 mph 1020.8mb 54f 47f
9:32am 9 15 mph 1021mb 54f 47f
9:17am 11 15 mph 1020.8mb 54f 46f
9:02am 10 16 mph 1020.5mb 53f 45f
8:47am 8 10 mph 1020.3mb 53f 44f
8:32am 9 11 mph 1020.2mb 54f 43f
8:17am 8 10 mph 1020.3mb 53f 42f
8:02am 6 8 mph 1020.3mb 54f 41f
7:47am 7 9 mph 1020.3mb 54f 41f
7:32am 8 9 mph 1020.1mb 54f 41f
7:17am 9 10 mph 1020mb 54f 41f
7:02am 8 10 mph 1019.9mb 54f 41f
6:47am 8 9 mph 1019.7mb 54f 41f
6:32am 8 10 mph 1019.1mb 54f 42f
6:17am 7 9 mph 1019.1mb 54f 42f
6:02am 6 8 mph 1019mb 54f 42f
5:47am 5 7 mph 1018.8mb 54f 42f
5:32am 5 6 mph 1018.4mb 54f 42f
5:17am 3 6 mph 1018.4mb 54f 42f
5:02am 3
mph
1018.1mb 54f 43f
4:47am 3 5 mph 1018.2mb 54f 43f
4:32am 2 3 mph 1018.1mb 54f 43f
4:17am 3 5 mph 1018mb 54f 44f
4:02am 5 6 mph 1018mb 54f 45f
3:47am 3 5 mph 1017.9mb 54f 46f
3:32am 3 5 mph 1017.9mb 54f 46f
3:17am 3
mph
1018mb 54f 46f
3:02am 5
mph
1018.1mb 54f 46f
2:47am 5
mph
1017.9mb 54f 47f
2:32am 5 6 mph 1017.7mb 54f 48f
2:17am 6 8 mph 1017.7mb 54f 48f
2:02am 5 7 mph 1017.9mb 54f 48f
1:47am 5 6 mph 1017.6mb 54f 49f
1:32am 5
mph
1017.8mb 54f 49f
1:17am 5 6 mph 1017.7mb 54f 49f
1:02am 5
mph
1017.7mb 54f 49f
12:47am 5 6 mph 1017.7mb 54f 49f
12:32am 3
mph
1017.8mb 54f 50f
12:17am 5
mph
1017.9mb 54f 50f
12:02am 5
mph
1018mb 54f 49f
Wed 12/17 11:47pm 5
mph
1018.2mb 54f 50f
11:32pm 5
mph
1018.5mb 54f 50f
11:17pm 5
mph
1018.5mb 54f 50f
11:02pm 6
mph
1018.5mb 54f 51f
10:47pm 5
mph
1018.5mb 54f 51f
10:32pm 5
mph
1018.6mb 54f 51f
10:17pm 5 6 mph 1018.5mb 54f 51f
10:02pm 5
mph
1018.3mb 54f 51f
9:47pm 5
mph
1018.3mb 54f 51f
9:32pm 5
mph
1018.2mb 54f 51f
9:17pm 5 6 mph 1018.3mb 54f 51f
9:02pm 5 6 mph 1018.3mb 54f 52f
8:47pm 5 6 mph 1018.2mb 54f 52f
8:32pm 5 6 mph 1018.2mb 54f 52f
8:17pm 5 6 mph 1018.2mb 54f 52f
8:02pm 5
mph
1018.2mb 54f 53f
7:47pm 3 5 mph 1018.2mb 54f 53f
7:32pm 6
mph
1018.3mb 54f 54f
6:47pm 6
mph
1018mb 55f 55f
6:32pm 7 8 mph 1018.1mb 55f 55f
6:17pm 9 10 mph 1018mb 55f 55f
6:02pm 8 10 mph 1017.7mb 55f 55f
5:47pm 9
mph
1017.6mb 55f 55f
5:32pm 10 11 mph 1017.3mb 55f 55f
5:17pm 13 14 mph 1017.2mb 55f 55f
5:02pm 10 11 mph 1017mb 55f 55f
4:47pm 11 14 mph 1017mb 55f 55f
4:32pm 11 13 mph 1016.9mb 55f 55f
4:17pm 14 15 mph 1016.8mb 55f 55f
4:02pm 11 13 mph 1016.9mb 55f 55f
3:47pm 14 15 mph 1016.6mb 55f 55f
3:32pm 14 15 mph 1016.7mb 55f 55f
3:17pm 10 14 mph 1016.7mb 55f 56f
3:02pm 15 16 mph 1016.6mb 55f 55f
2:47pm 14 15 mph 1016.6mb 55f 55f
2:32pm 14 15 mph 1016.6mb 54f 56f
2:17pm 13
mph
1016.7mb 54f 56f
2:02pm 13 14 mph 1016.8mb 54f 56f
1:47pm 11 13 mph 1016.9mb 54f 56f
1:32pm 11 13 mph 1016.9mb 54f 57f
1:17pm 5 7 mph 1017.2mb 54f 59f
1:02pm 7 13 mph 1017.4mb 54f 59f
12:47pm 9 11 mph 1017.9mb 54f 59f
12:32pm 8 10 mph 1018mb 54f 58f
12:17pm 7 10 mph 1018.3mb 54f 58f
12:02pm 7 9 mph 1018.4mb 54f 58f
11:47am 6 13 mph 1018.8mb 54f 58f
11:32am 6 8 mph 1019mb 54f 57f
11:17am 8 11 mph 1019.1mb 54f 57f
11:02am 9 11 mph 1019.3mb 54f 56f
10:47am 9 14 mph 1019.5mb 54f 56f
10:32am 11 15 mph 1019.6mb 54f 55f
10:17am 9 13 mph 1019.8mb 54f 55f
10:02am 9 15 mph 1019.9mb 54f 54f
9:47am 10 13 mph 1019.6mb 54f 53f
9:32am 9 11 mph 1019.5mb 54f 53f
9:17am 6 10 mph 1019.4mb 54f 52f
9:02am 8 11 mph 1019mb 53f 51f
8:47am 8 9 mph 1018.7mb 53f 50f
8:32am 10 14 mph 1018.6mb 54f 49f
8:17am 10 11 mph 1018.7mb 53f 48f
8:02am 11 14 mph 1018.6mb 54f 47f
7:47am 11 14 mph 1018.5mb 53f 47f
7:32am 11 15 mph 1018.1mb 53f 47f
7:17am 10 14 mph 1018mb 53f 47f
7:02am 10 13 mph 1017.9mb 53f 47f
6:47am 10 13 mph 1017.8mb 54f 47f
6:32am 9 11 mph 1017.7mb 54f 47f
6:17am 9 11 mph 1017.6mb 54f 47f
6:02am 9 10 mph 1017.4mb 54f 47f
5:47am 8 10 mph 1017.2mb 54f 47f
5:32am 8 9 mph 1017.1mb 54f 48f
5:17am 7 8 mph 1016.8mb 54f 48f
5:02am 6 7 mph 1016.5mb 54f 49f
4:47am 8 10 mph 1016.6mb 54f 49f
4:32am 8 9 mph 1016.5mb 54f 50f
4:17am 7 9 mph 1016.2mb 54f 50f
4:02am 8 9 mph 1016.3mb 54f 50f
3:47am 8 9 mph 1016.2mb 54f 50f
3:32am 7 9 mph 1016.1mb 54f 50f
3:17am 5 6 mph 1015.9mb 54f 50f
3:02am 6 7 mph 1015.9mb 54f 52f
2:47am 6 7 mph 1015.9mb 54f 52f
2:32am 6
mph
1015.7mb 54f 52f
2:17am 6 7 mph 1015.6mb 54f 53f
2:02am 8 9 mph 1015.4mb 54f 53f
1:47am 8 10 mph 1015.2mb 54f 54f
1:32am 8 10 mph 1015.1mb 54f 55f
1:17am 7 9 mph 1015.2mb 55f 55f
1:02am 8 10 mph 1015.2mb 55f 55f
12:47am 8 9 mph 1015.1mb 55f 55f
12:32am 7 8 mph 1015mb 55f 55f
12:17am 7 8 mph 1015.1mb 55f 55f
12:02am 8
mph
1015mb 55f 56f
Tue 12/16 11:47pm 9 10 mph 1015.1mb 55f 56f
11:32pm 8 9 mph 1015.3mb 55f 56f
11:17pm 9
mph
1015.1mb 55f 57f
11:02pm 11 13 mph 1015.1mb 55f 57f
10:47pm 15 17 mph 1015mb 55f 58f
10:32pm 16 18 mph 1014.9mb 55f 57f
10:17pm 14 17 mph 1014.4mb 55f 57f
10:02pm 15 16 mph 1014.3mb 56f 57f
9:47pm 15 16 mph 1014mb 56f 57f
9:32pm 13 14 mph 1014.2mb 56f 57f
9:17pm 16 17 mph 1014.1mb 56f 57f
9:02pm 16 18 mph 1014mb 56f 57f
8:47pm 16 18 mph 1014.2mb 56f 58f
8:32pm 15 16 mph 1014.2mb 56f 58f
8:17pm 16 18 mph 1014.1mb 56f 58f
8:02pm 21 23 mph 1013.9mb 56f 59f
7:47pm 24 28 mph 1013.5mb 56f 59f
7:32pm 26 31 mph 1013.3mb 56f 60f
6:47pm 24 28 mph 1013mb 56f 60f
6:32pm 25 30 mph 1012.8mb 56f 61f
6:17pm 20 23 mph 1013mb 56f 60f
6:02pm 17 20 mph 1013.1mb 56f 60f
5:47pm 18 21 mph 1013.1mb 56f 60f
5:32pm 18 22 mph 1012.8mb 56f 61f
5:17pm 13 16 mph 1012.6mb 56f 60f
5:02pm 15 16 mph 1012.8mb 56f 60f
4:47pm 14 15 mph 1013.1mb 56f 59f
4:32pm 6 7 mph 1013.4mb 56f 59f
4:17pm 7 8 mph 1013.4mb 56f 59f
4:02pm 9 10 mph 1013.3mb 56f 60f
3:47pm 9 10 mph 1013.2mb 56f 60f
3:32pm 11 13 mph 1013.2mb 56f 60f
3:17pm 11 13 mph 1013.5mb 56f 60f
3:02pm 13 15 mph 1013.6mb 55f 60f
2:47pm 11 14 mph 1013.5mb 55f 61f
2:32pm 9 11 mph 1013.8mb 55f 61f
2:17pm 8 10 mph 1014.2mb 55f 60f
2:02pm 8 10 mph 1014.3mb 55f 60f
1:47pm 7 9 mph 1014.5mb 55f 60f
1:32pm 5 6 mph 1014.7mb 55f 60f
1:17pm 3 5 mph 1015mb 55f 60f
1:02pm 5 7 mph 1015.5mb 55f 60f
12:47pm 5
mph
1015.7mb 55f 60f
12:32pm 5 6 mph 1016mb 55f 60f
12:17pm 6 7 mph 1016.6mb 55f 59f
12:02pm 6 7 mph 1016.7mb 55f 59f
11:47am 3 6 mph 1017mb 55f 59f
11:32am 6 7 mph 1017.3mb 55f 59f
11:17am 6
mph
1017.5mb 55f 58f
11:02am 5 6 mph 1017.8mb 55f 58f
10:47am 3 5 mph 1017.8mb 54f 58f
10:32am 3 5 mph 1018mb 54f 58f
10:17am 5
mph
1017.9mb 54f 58f
10:02am 5
mph
1017.9mb 54f 58f
9:47am 5 6 mph 1018.2mb 54f 57f
9:32am 5 6 mph 1018.3mb 54f 56f
9:17am 5
mph
1018.3mb 54f 56f
9:02am 5
mph
1018.2mb 54f 56f
8:47am 5
mph
1018.2mb 54f 56f
7:47am 8
mph
1018mb 54f 55f
6:47am 10 11 mph 1017.9mb 54f 55f
5:47am 9
mph
1017.3mb 55f 55f
4:47am 5 6 mph 1017.1mb 55f 54f
3:47am 2 3 mph 1017.4mb 55f 52f
2:47am 2
mph
1017.8mb 55f 52f
2:32am 3 6 mph 1017.8mb 55f 53f
2:17am 6 8 mph 1017.5mb 55f 53f
2:02am 7 9 mph 1017.7mb 55f 52f
1:47am 7 9 mph 1017.6mb 55f 52f
1:32am 8 9 mph 1017.5mb 55f 53f
1:17am 7 8 mph 1017.7mb 55f 52f
1:02am 8
mph
1017.7mb 55f 51f
12:47am 7 8 mph 1017.8mb 55f 51f
12:32am 7 8 mph 1017.8mb 55f 52f
12:17am 7 8 mph 1018mb 55f 52f
12:02am 6 7 mph 1018.1mb 55f 52f
Mon 12/15 11:47pm 6 7 mph 1018.1mb 55f 52f
11:32pm 7 8 mph 1018.1mb 55f 52f
11:17pm 6 7 mph 1018.4mb 55f 53f
11:02pm 6 7 mph 1018.5mb 55f 53f
10:47pm 6 7 mph 1018.6mb 55f 52f
10:32pm 5 6 mph 1018.7mb 55f 52f
10:17pm 6
mph
1018.7mb 55f 52f
10:02pm 5
mph
1018.7mb 55f 52f
9:47pm 5 6 mph 1018.5mb 55f 52f
9:32pm 6 7 mph 1018.3mb 55f 52f
9:17pm 7 8 mph 1018.3mb 55f 52f
9:02pm 7
mph
1018.4mb 55f 52f
8:47pm 7 8 mph 1018.5mb 55f 51f
8:32pm 7
mph
1018.5mb 55f 51f
8:17pm 6 7 mph 1018.6mb 55f 51f
8:02pm 6
mph
1018.7mb 55f 51f
7:47pm 5 6 mph 1018.9mb 55f 51f
7:32pm 3 5 mph 1018.9mb 55f 51f
6:47pm 3
mph
1018.4mb 55f 51f
6:32pm 3 5 mph 1018.3mb 55f 51f
6:17pm 6 7 mph 1018mb 55f 52f
6:02pm 7 8 mph 1017.9mb 55f 52f
5:47pm 7 8 mph 1017.9mb 56f 53f
5:32pm 6 7 mph 1018.1mb 56f 53f
5:17pm 6 7 mph 1018.1mb 56f 54f
5:02pm 9
mph
1018mb 56f 55f
4:47pm 9
mph
1018.2mb 56f 55f
4:32pm 8 9 mph 1018.1mb 56f 56f
4:17pm 8 9 mph 1018mb 56f 56f
4:02pm 8 9 mph 1017.9mb 56f 56f
3:47pm 7 8 mph 1017.8mb 56f 56f
3:32pm 8
mph
1017.7mb 56f 56f
3:17pm 8 9 mph 1017.5mb 56f 56f
3:02pm 8
mph
1017.5mb 55f 56f
2:47pm 8
mph
1017.4mb 55f 56f
2:32pm 7 8 mph 1017.3mb 55f 56f
2:17pm 7
mph
1017.5mb 55f 56f
2:02pm 6 7 mph 1017.6mb 55f 56f
1:47pm 6 7 mph 1017.7mb 55f 56f
1:32pm 6 7 mph 1017.7mb 55f 56f
1:17pm 6
mph
1017.9mb 55f 56f
1:02pm 3
mph
1018mb 54f 56f
12:47pm 3 5 mph 1018.1mb 54f 56f
12:32pm 3
mph
1018.2mb 54f 55f
12:17pm 3 5 mph 1018.4mb 54f 54f
12:02pm 5
mph
1018.6mb 54f 54f
11:47am 5 6 mph 1018.8mb 54f 53f
11:32am 5
mph
1019mb 54f 53f
11:17am 5 6 mph 1019.3mb 54f 52f
11:02am 5 6 mph 1019.6mb 54f 52f
10:47am 5
mph
1019.6mb 54f 53f
10:32am 2 3 mph 1019.7mb 54f 53f
10:17am 1 2 mph 1019.7mb 54f 53f
10:02am  -  1 mph 1019.6mb 54f 51f
9:47am 3 6 mph 1019.5mb 54f 49f
9:32am 5 6 mph 1019.2mb 54f 48f
9:17am 10 11 mph 1019mb 53f 46f
9:02am 8 10 mph 1018.8mb 53f 45f
8:47am 9 11 mph 1018.6mb 53f 44f
8:17am 8 11 mph 1018.3mb 53f 40f
8:02am 8 11 mph 1018.3mb 53f 40f
7:47am 9 13 mph 1018mb 53f 39f
7:32am 9 11 mph 1017.9mb 53f 40f
7:17am 9 11 mph 1017.8mb 53f 41f
7:02am 8 10 mph 1017.7mb 53f 42f
6:47am 7 8 mph 1017.7mb 53f 42f
6:32am 8 9 mph 1017.5mb 53f 42f
6:17am 7 8 mph 1017.5mb 53f 42f
6:02am 7 8 mph 1017.4mb 53f 43f
5:47am 8 9 mph 1017.4mb 53f 42f
5:32am 8 9 mph 1017.3mb 54f 42f
5:17am 8 9 mph 1017.3mb 53f 44f
5:02am 9 10 mph 1017.4mb 54f 44f
4:47am 9 10 mph 1017.2mb 54f 42f
4:32am 8 10 mph 1017.1mb 54f 43f
4:17am 8 9 mph 1017mb 54f 46f
4:02am 3 5 mph 1017.2mb 54f 40f
3:47am 2 3 mph 1017.1mb 54f 42f
3:32am 6
mph
1017.1mb 54f 46f
3:17am 5
mph
1017.1mb 55f 43f
3:02am 5
mph
1017.2mb 55f 42f
2:47am 3 5 mph 1017.2mb 55f 42f
2:32am 2
mph
1017.1mb 55f 41f
2:17am 3
mph
1017mb 55f 40f
2:02am 3
mph
1017mb 55f 43f
1:47am 3
mph
1016.9mb 55f 44f
1:32am 3 5 mph 1016.8mb 55f 43f
1:17am 3 6 mph 1016.8mb 55f 43f
1:02am 6 7 mph 1016.6mb 54f 44f